This is the latest recevied weather packets stored in our database for station/object KD0ISH. If no packets are shown the sender has not sent any weather packets the latest 10 day(s).
| Time | Temp. | Humidity | Pressure | Rain* | Wind** | Luminosity | Snow |
|---|---|---|---|---|---|---|---|
| 1777843754 | 26.67° C | 43% | 1012.4 hPa | 0 mm | - | 431 W/m² | - |
| 1777843452 | 27.22° C | 40% | 1012.3 hPa | 0 mm | - | 456 W/m² | - |
| 1777843149 | 26.67° C | 42% | 1012.7 hPa | 0 mm | - | 483 W/m² | - |
| 1777842846 | 26.67° C | 39% | 1012.9 hPa | 0 mm | - | 507 W/m² | - |
| 1777842541 | 26.67° C | 40% | 1012.5 hPa | 0 mm | - | 513 W/m² | - |
| 1777842239 | 27.22° C | 41% | 1013 hPa | 0 mm | - | 525 W/m² | - |
| 1777841933 | 26.67° C | 41% | 1013 hPa | 0 mm | - | 553 W/m² | - |
| 1777841630 | 26.67° C | 41% | 1012.9 hPa | 0 mm | - | 548 W/m² | - |
| 1777841327 | 26.67° C | 40% | 1013.1 hPa | 0 mm | - | 567 W/m² | - |
| 1777841024 | 26.67° C | 41% | 1013.3 hPa | 0 mm | - | 572 W/m² | - |
| 1777840721 | 26.67° C | 38% | 1013.2 hPa | 0 mm | - | 586 W/m² | - |
| 1777840418 | 26.67° C | 42% | 1013.4 hPa | 0 mm | - | 557 W/m² | - |
| 1777840115 | 26.67° C | 44% | 1013.3 hPa | 0 mm | - | 524 W/m² | - |
| 1777839814 | 26.11° C | 40% | 1013.6 hPa | 0 mm | - | 546 W/m² | - |
| 1777839512 | 26.67° C | 42% | 1013.5 hPa | 0 mm | - | 554 W/m² | - |
| 1777839208 | 26.67° C | 43% | 1013.5 hPa | 0 mm | - | 581 W/m² | - |
| 1777838906 | 26.11° C | 42% | 1013.6 hPa | 0 mm | - | 615 W/m² | - |
| 1777838601 | 26.67° C | 42% | 1013.6 hPa | 0 mm | - | 641 W/m² | - |
| 1777838299 | 26.11° C | 45% | 1013.8 hPa | 0 mm | - | 613 W/m² | - |
| 1777837995 | 26.11° C | 45% | 1014 hPa | 0 mm | - | 633 W/m² | - |
| 1777837693 | 25.56° C | 43% | 1013.9 hPa | 0 mm | - | 649 W/m² | - |
| 1777837389 | 25.56° C | 43% | 1014.1 hPa | 0 mm | - | 659 W/m² | - |
| 1777837085 | 25.56° C | 46% | 1014.1 hPa | 0 mm | - | 668 W/m² | - |
| 1777836781 | 25.56° C | 44% | 1014.1 hPa | 0 mm | - | 676 W/m² | - |
| 1777836477 | 26.11° C | 44% | 1014.3 hPa | 0 mm | - | 679 W/m² | - |
* Rain latest hour (hover to see other rain measurements)
** Current wind speed in m/s (hover to see current wind gust speed)